sensor_id;sensor_type;location;lat;lon;timestamp;pressure;altitude;pressure_sealevel;temperature;humidity
55171;BME280;41060;47.510;8.680;2023-10-09T00:02:59;97840.72;;;16.94;50.44
55171;BME280;41060;47.510;8.680;2023-10-09T00:05:41;97841.75;;;16.83;50.34
55171;BME280;41060;47.510;8.680;2023-10-09T00:08:27;97844.56;;;16.82;50.52
55171;BME280;41060;47.510;8.680;2023-10-09T00:11:11;97808.81;;;16.64;50.15
55171;BME280;41060;47.510;8.680;2023-10-09T00:13:57;97850.44;;;16.85;50.31
55171;BME280;41060;47.510;8.680;2023-10-09T00:16:38;97838.34;;;16.91;50.41
55171;BME280;41060;47.510;8.680;2023-10-09T00:19:27;97842.25;;;17.06;50.23
55171;BME280;41060;47.510;8.680;2023-10-09T00:22:13;97836.63;;;17.09;50.47
55171;BME280;41060;47.510;8.680;2023-10-09T00:25:08;97840.72;;;17.13;49.71
55171;BME280;41060;47.510;8.680;2023-10-09T00:27:52;97853.25;;;17.13;49.89
55171;BME280;41060;47.510;8.680;2023-10-09T00:30:34;97847.91;;;17.03;49.99
55171;BME280;41060;47.510;8.680;2023-10-09T00:33:15;97852.56;;;17.01;50.15
55171;BME280;41060;47.510;8.680;2023-10-09T00:36:03;97848.78;;;17.04;50.18
55171;BME280;41060;47.510;8.680;2023-10-09T00:38:50;97846.81;;;17.06;50.15
55171;BME280;41060;47.510;8.680;2023-10-09T00:41:33;97846.50;;;17.09;49.79
55171;BME280;41060;47.510;8.680;2023-10-09T00:44:15;97847.78;;;17.05;49.95
55171;BME280;41060;47.510;8.680;2023-10-09T00:46:57;97848.19;;;17.10;50.09
55171;BME280;41060;47.510;8.680;2023-10-09T00:49:53;97841.25;;;17.17;49.36
55171;BME280;41060;47.510;8.680;2023-10-09T00:52:40;97844.66;;;17.09;49.53
55171;BME280;41060;47.510;8.680;2023-10-09T00:55:24;97840.16;;;17.10;50.06
55171;BME280;41060;47.510;8.680;2023-10-09T00:58:19;97840.56;;;17.15;49.91
55171;BME280;41060;47.510;8.680;2023-10-09T01:01:04;97831.41;;;17.08;49.89
55171;BME280;41060;47.510;8.680;2023-10-09T01:03:56;97831.25;;;17.19;49.78
55171;BME280;41060;47.510;8.680;2023-10-09T01:06:41;97826.03;;;17.27;49.35
55171;BME280;41060;47.510;8.680;2023-10-09T01:09:24;97829.19;;;17.13;49.96
55171;BME280;41060;47.510;8.680;2023-10-09T01:12:08;97816.97;;;16.91;49.62
55171;BME280;41060;47.510;8.680;2023-10-09T01:14:58;97828.25;;;16.66;49.96
55171;BME280;41060;47.510;8.680;2023-10-09T01:17:41;97825.31;;;16.40;50.43
55171;BME280;41060;47.510;8.680;2023-10-09T01:20:25;97823.91;;;16.17;51.13
55171;BME280;41060;47.510;8.680;2023-10-09T01:23:12;97798.41;;;15.93;51.71
55171;BME280;41060;47.510;8.680;2023-10-09T01:25:54;97821.22;;;16.07;51.42
55171;BME280;41060;47.510;8.680;2023-10-09T01:28:35;97829.59;;;15.83;52.48
55171;BME280;41060;47.510;8.680;2023-10-09T01:31:18;97820.19;;;15.79;52.82
55171;BME280;41060;47.510;8.680;2023-10-09T01:34:01;97817.94;;;15.94;52.01
55171;BME280;41060;47.510;8.680;2023-10-09T01:36:44;97811.34;;;15.98;52.16
55171;BME280;41060;47.510;8.680;2023-10-09T01:39:30;97815.00;;;15.87;52.41
55171;BME280;41060;47.510;8.680;2023-10-09T01:42:20;97800.78;;;15.96;51.72
55171;BME280;41060;47.510;8.680;2023-10-09T01:45:14;97788.72;;;16.02;51.34
55171;BME280;41060;47.510;8.680;2023-10-09T01:48:07;97796.63;;;16.13;51.11
55171;BME280;41060;47.510;8.680;2023-10-09T01:50:49;97795.78;;;16.13;51.28
55171;BME280;41060;47.510;8.680;2023-10-09T01:53:30;97790.03;;;16.07;51.06
55171;BME280;41060;47.510;8.680;2023-10-09T01:56:14;97794.34;;;15.99;51.19
55171;BME280;41060;47.510;8.680;2023-10-09T01:58:56;97796.28;;;15.78;51.65
55171;BME280;41060;47.510;8.680;2023-10-09T02:01:42;97795.00;;;15.72;51.72
55171;BME280;41060;47.510;8.680;2023-10-09T02:04:28;97789.81;;;15.70;51.71
55171;BME280;41060;47.510;8.680;2023-10-09T02:07:09;97789.81;;;15.70;51.57
55171;BME280;41060;47.510;8.680;2023-10-09T02:09:54;97789.50;;;15.64;51.91
55171;BME280;41060;47.510;8.680;2023-10-09T02:12:37;97786.25;;;15.60;51.82
55171;BME280;41060;47.510;8.680;2023-10-09T02:15:21;97780.47;;;15.46;51.86
55171;BME280;41060;47.510;8.680;2023-10-09T02:18:21;97787.41;;;15.58;51.75
55171;BME280;41060;47.510;8.680;2023-10-09T02:21:20;97772.50;;;15.65;51.34
55171;BME280;41060;47.510;8.680;2023-10-09T02:24:13;97773.75;;;15.61;51.46
55171;BME280;41060;47.510;8.680;2023-10-09T02:27:09;97785.25;;;15.42;51.70
55171;BME280;41060;47.510;8.680;2023-10-09T02:29:54;97787.56;;;15.26;52.75
55171;BME280;41060;47.510;8.680;2023-10-09T02:32:38;97786.41;;;15.19;52.85
55171;BME280;41060;47.510;8.680;2023-10-09T02:35:20;97794.88;;;15.03;53.35
55171;BME280;41060;47.510;8.680;2023-10-09T02:38:08;97794.81;;;14.93;54.55
55171;BME280;41060;47.510;8.680;2023-10-09T02:40:54;97784.66;;;15.08;53.56
55171;BME280;41060;47.510;8.680;2023-10-09T02:44:00;97795.97;;;15.21;53.54
55171;BME280;41060;47.510;8.680;2023-10-09T02:46:52;97784.09;;;15.35;52.38
55171;BME280;41060;47.510;8.680;2023-10-09T02:49:37;97786.19;;;15.31;52.40
55171;BME280;41060;47.510;8.680;2023-10-09T02:52:20;97775.38;;;15.33;52.46
55171;BME280;41060;47.510;8.680;2023-10-09T02:55:05;97778.75;;;15.45;51.98
55171;BME280;41060;47.510;8.680;2023-10-09T02:57:52;97720.00;;;15.16;51.52
55171;BME280;41060;47.510;8.680;2023-10-09T03:00:45;97770.22;;;15.41;52.15
55171;BME280;41060;47.510;8.680;2023-10-09T03:03:29;97772.84;;;15.31;52.31
55171;BME280;41060;47.510;8.680;2023-10-09T03:06:10;97781.63;;;15.13;52.67
55171;BME280;41060;47.510;8.680;2023-10-09T03:08:52;97780.28;;;15.07;52.54
55171;BME280;41060;47.510;8.680;2023-10-09T03:11:34;97781.00;;;15.09;52.77
55171;BME280;41060;47.510;8.680;2023-10-09T03:14:16;97780.78;;;14.91;52.69
55171;BME280;41060;47.510;8.680;2023-10-09T03:17:01;97783.22;;;14.74;53.35
55171;BME280;41060;47.510;8.680;2023-10-09T03:19:44;97780.88;;;14.80;52.71
55171;BME280;41060;47.510;8.680;2023-10-09T03:22:26;97781.78;;;14.70;53.66
55171;BME280;41060;47.510;8.680;2023-10-09T03:25:11;97776.50;;;14.79;53.49
55171;BME280;41060;47.510;8.680;2023-10-09T03:27:58;97727.41;;;14.51;53.43
55171;BME280;41060;47.510;8.680;2023-10-09T03:30:44;97772.16;;;14.78;53.84
55171;BME280;41060;47.510;8.680;2023-10-09T03:33:31;97769.94;;;14.83;53.64
55171;BME280;41060;47.510;8.680;2023-10-09T03:36:18;97769.75;;;14.75;53.70
55171;BME280;41060;47.510;8.680;2023-10-09T03:39:03;97764.88;;;14.80;53.40
55171;BME280;41060;47.510;8.680;2023-10-09T03:42:02;97767.28;;;14.83;53.44
55171;BME280;41060;47.510;8.680;2023-10-09T03:44:49;97767.84;;;14.87;53.25
55171;BME280;41060;47.510;8.680;2023-10-09T03:47:37;97763.34;;;14.87;53.00
55171;BME280;41060;47.510;8.680;2023-10-09T03:50:25;97769.75;;;14.75;53.32
55171;BME280;41060;47.510;8.680;2023-10-09T03:53:20;97764.13;;;14.69;53.31
55171;BME280;41060;47.510;8.680;2023-10-09T03:56:07;97764.69;;;14.72;53.22
55171;BME280;41060;47.510;8.680;2023-10-09T03:58:56;97764.16;;;14.78;52.67
55171;BME280;41060;47.510;8.680;2023-10-09T04:01:41;97765.59;;;14.82;52.75
55171;BME280;41060;47.510;8.680;2023-10-09T04:04:27;97762.88;;;14.73;53.12
55171;BME280;41060;47.510;8.680;2023-10-09T04:07:16;97762.88;;;14.73;52.69
55171;BME280;41060;47.510;8.680;2023-10-09T04:10:03;97763.13;;;14.70;52.94
55171;BME280;41060;47.510;8.680;2023-10-09T04:13:09;97765.25;;;14.45;53.49
55171;BME280;41060;47.510;8.680;2023-10-09T04:16:01;97760.59;;;14.47;53.18
55171;BME280;41060;47.510;8.680;2023-10-09T04:18:53;97754.69;;;14.65;52.94
55171;BME280;41060;47.510;8.680;2023-10-09T04:21:40;97757.41;;;14.74;52.68
55171;BME280;41060;47.510;8.680;2023-10-09T04:24:25;97764.88;;;14.80;52.16
55171;BME280;41060;47.510;8.680;2023-10-09T04:27:12;97758.03;;;14.87;54.65
55171;BME280;41060;47.510;8.680;2023-10-09T04:30:01;97761.44;;;14.99;53.78
55171;BME280;41060;47.510;8.680;2023-10-09T04:32:46;97756.09;;;14.99;53.16
55171;BME280;41060;47.510;8.680;2023-10-09T04:35:36;97762.94;;;14.92;52.52
55171;BME280;41060;47.510;8.680;2023-10-09T04:38:22;97760.81;;;14.86;52.81
55171;BME280;41060;47.510;8.680;2023-10-09T04:41:07;97758.13;;;14.76;52.54
55171;BME280;41060;47.510;8.680;2023-10-09T04:43:55;97767.59;;;14.69;52.84
55171;BME280;41060;47.510;8.680;2023-10-09T04:47:00;97766.94;;;14.77;52.17
55171;BME280;41060;47.510;8.680;2023-10-09T04:50:09;97764.34;;;14.86;51.88
55171;BME280;41060;47.510;8.680;2023-10-09T04:52:55;97760.28;;;14.92;52.02
55171;BME280;41060;47.510;8.680;2023-10-09T04:55:39;97761.91;;;14.74;52.19
55171;BME280;41060;47.510;8.680;2023-10-09T04:58:28;97760.31;;;14.71;52.11
55171;BME280;41060;47.510;8.680;2023-10-09T05:01:18;97753.22;;;14.51;52.66
55171;BME280;41060;47.510;8.680;2023-10-09T05:04:20;97751.63;;;14.48;52.80
55171;BME280;41060;47.510;8.680;2023-10-09T05:07:23;97752.22;;;14.52;52.74
55171;BME280;41060;47.510;8.680;2023-10-09T05:10:09;97750.13;;;14.55;52.42
55171;BME280;41060;47.510;8.680;2023-10-09T05:12:59;97749.47;;;14.63;52.35
55171;BME280;41060;47.510;8.680;2023-10-09T05:15:46;97740.59;;;14.53;52.56
55171;BME280;41060;47.510;8.680;2023-10-09T05:18:37;97749.03;;;14.58;52.56
55171;BME280;41060;47.510;8.680;2023-10-09T05:21:22;97741.88;;;14.58;52.46
55171;BME280;41060;47.510;8.680;2023-10-09T05:24:24;97755.44;;;14.46;53.25
55171;BME280;41060;47.510;8.680;2023-10-09T05:27:11;97748.66;;;14.42;53.31
55171;BME280;41060;47.510;8.680;2023-10-09T05:30:02;97740.13;;;14.48;52.84
55171;BME280;41060;47.510;8.680;2023-10-09T05:33:08;97753.00;;;14.43;53.27
55171;BME280;41060;47.510;8.680;2023-10-09T05:36:08;97746.59;;;14.45;53.29
55171;BME280;41060;47.510;8.680;2023-10-09T05:39:13;97726.88;;;14.57;52.86
55171;BME280;41060;47.510;8.680;2023-10-09T05:42:25;97751.66;;;14.79;52.68
55171;BME280;41060;47.510;8.680;2023-10-09T05:45:15;97745.06;;;14.73;52.86
55171;BME280;41060;47.510;8.680;2023-10-09T05:48:29;97751.88;;;14.66;52.97
55171;BME280;41060;47.510;8.680;2023-10-09T05:51:34;97751.88;;;14.66;53.09
55171;BME280;41060;47.510;8.680;2023-10-09T05:54:28;97758.47;;;14.41;53.74
55171;BME280;41060;47.510;8.680;2023-10-09T05:57:31;97759.44;;;14.40;53.95
55171;BME280;41060;47.510;8.680;2023-10-09T06:00:34;97769.75;;;14.34;54.22
55171;BME280;41060;47.510;8.680;2023-10-09T06:03:37;97772.25;;;14.67;53.26
55171;BME280;41060;47.510;8.680;2023-10-09T06:06:40;97765.31;;;14.85;52.94
55171;BME280;41060;47.510;8.680;2023-10-09T06:09:28;97778.94;;;14.92;52.94
55171;BME280;41060;47.510;8.680;2023-10-09T06:12:33;97785.00;;;14.94;53.17
55171;BME280;41060;47.510;8.680;2023-10-09T06:15:37;97781.25;;;14.96;53.59
55171;BME280;41060;47.510;8.680;2023-10-09T06:18:53;97784.09;;;15.05;53.42
55171;BME280;41060;47.510;8.680;2023-10-09T06:21:42;97767.66;;;15.09;52.93
55171;BME280;41060;47.510;8.680;2023-10-09T06:24:26;97791.81;;;15.08;53.69
55171;BME280;41060;47.510;8.680;2023-10-09T06:26:59;97736.94;;;14.84;53.22
55171;BME280;41060;47.510;8.680;2023-10-09T06:30:04;97785.75;;;15.26;53.70
55171;BME280;41060;47.510;8.680;2023-10-09T06:32:51;97791.25;;;15.34;53.47
55171;BME280;41060;47.510;8.680;2023-10-09T06:35:23;97787.75;;;15.34;53.86
55171;BME280;41060;47.510;8.680;2023-10-09T06:37:58;97792.00;;;15.56;53.31
55171;BME280;41060;47.510;8.680;2023-10-09T06:43:35;97795.28;;;15.69;52.93
55171;BME280;41060;47.510;8.680;2023-10-09T06:46:15;97797.38;;;15.75;53.14
55171;BME280;41060;47.510;8.680;2023-10-09T06:49:01;97792.88;;;15.66;53.78
55171;BME280;41060;47.510;8.680;2023-10-09T06:51:49;97802.03;;;15.83;53.42
55171;BME280;41060;47.510;8.680;2023-10-09T06:54:25;97798.97;;;15.87;53.70
55171;BME280;41060;47.510;8.680;2023-10-09T06:56:52;97804.75;;;16.02;53.19
55171;BME280;41060;47.510;8.680;2023-10-09T06:59:36;97804.22;;;16.08;53.66
55171;BME280;41060;47.510;8.680;2023-10-09T07:02:17;97805.06;;;16.18;53.26
55171;BME280;41060;47.510;8.680;2023-10-09T07:04:53;97807.44;;;16.11;54.66
55171;BME280;41060;47.510;8.680;2023-10-09T07:07:35;97812.09;;;16.19;54.45
55171;BME280;41060;47.510;8.680;2023-10-09T07:10:09;97806.31;;;16.33;53.96
55171;BME280;41060;47.510;8.680;2023-10-09T07:12:53;97812.09;;;16.38;54.24
55171;BME280;41060;47.510;8.680;2023-10-09T07:15:23;97809.84;;;16.34;54.49
55171;BME280;41060;47.510;8.680;2023-10-09T07:18:07;97814.63;;;16.21;54.95
55171;BME280;41060;47.510;8.680;2023-10-09T07:20:45;97824.19;;;16.23;54.90
55171;BME280;41060;47.510;8.680;2023-10-09T07:23:25;97816.16;;;16.42;54.71
55171;BME280;41060;47.510;8.680;2023-10-09T07:26:02;97818.25;;;16.68;54.04
55171;BME280;41060;47.510;8.680;2023-10-09T07:28:43;97815.13;;;16.82;53.57
55171;BME280;41060;47.510;8.680;2023-10-09T07:31:18;97826.97;;;16.99;53.04
55171;BME280;41060;47.510;8.680;2023-10-09T07:33:52;97818.31;;;17.14;52.72
55171;BME280;41060;47.510;8.680;2023-10-09T07:36:23;97824.88;;;17.30;52.57
55171;BME280;41060;47.510;8.680;2023-10-09T07:39:00;97815.94;;;17.48;52.43
55171;BME280;41060;47.510;8.680;2023-10-09T07:41:32;97809.22;;;17.62;52.01
55171;BME280;41060;47.510;8.680;2023-10-09T07:44:05;97826.34;;;17.79;52.20
55171;BME280;41060;47.510;8.680;2023-10-09T07:47:01;97828.13;;;17.88;52.05
55171;BME280;41060;47.510;8.680;2023-10-09T07:49:44;97831.16;;;18.02;52.05
55171;BME280;41060;47.510;8.680;2023-10-09T07:52:17;97825.50;;;18.23;51.79
55171;BME280;41060;47.510;8.680;2023-10-09T07:54:48;97826.88;;;18.27;50.71
55171;BME280;41060;47.510;8.680;2023-10-09T07:57:21;97841.44;;;18.42;51.28
55171;BME280;41060;47.510;8.680;2023-10-09T07:59:54;97842.53;;;18.67;51.23
55171;BME280;41060;47.510;8.680;2023-10-09T08:02:28;97844.88;;;18.88;50.73
55171;BME280;41060;47.510;8.680;2023-10-09T08:05:04;97854.19;;;19.02;49.18
55171;BME280;41060;47.510;8.680;2023-10-09T08:07:32;97853.44;;;19.17;49.46
55171;BME280;41060;47.510;8.680;2023-10-09T08:10:03;97846.53;;;19.41;49.46
55171;BME280;41060;47.510;8.680;2023-10-09T08:12:49;97841.00;;;19.68;47.55
55171;BME280;41060;47.510;8.680;2023-10-09T08:15:25;97835.53;;;19.86;46.37
55171;BME280;41060;47.510;8.680;2023-10-09T08:18:00;97835.41;;;20.04;46.25
55171;BME280;41060;47.510;8.680;2023-10-09T08:20:30;97826.84;;;20.00;45.98
55171;BME280;41060;47.510;8.680;2023-10-09T08:23:18;97833.44;;;20.22;45.38
55171;BME280;41060;47.510;8.680;2023-10-09T08:25:58;97834.66;;;20.36;45.09
55171;BME280;41060;47.510;8.680;2023-10-09T08:28:37;97847.44;;;20.50;44.97
55171;BME280;41060;47.510;8.680;2023-10-09T08:31:09;97840.03;;;20.36;42.94
55171;BME280;41060;47.510;8.680;2023-10-09T08:33:45;97840.06;;;20.52;42.39
55171;BME280;41060;47.510;8.680;2023-10-09T08:36:22;97841.09;;;20.59;41.62
55171;BME280;41060;47.510;8.680;2023-10-09T08:38:54;97836.38;;;20.61;40.92
55171;BME280;41060;47.510;8.680;2023-10-09T08:41:23;97850.84;;;21.00;40.85
55171;BME280;41060;47.510;8.680;2023-10-09T08:43:57;97840.75;;;21.19;40.67
55171;BME280;41060;47.510;8.680;2023-10-09T08:46:25;97846.94;;;21.27;40.78
55171;BME280;41060;47.510;8.680;2023-10-09T08:48:56;97813.50;;;21.05;40.45
55171;BME280;41060;47.510;8.680;2023-10-09T08:51:25;97844.13;;;21.13;41.04
55171;BME280;41060;47.510;8.680;2023-10-09T08:53:51;97848.16;;;21.00;40.93
55171;BME280;41060;47.510;8.680;2023-10-09T08:56:19;97847.97;;;20.94;41.22
55171;BME280;41060;47.510;8.680;2023-10-09T08:58:50;97854.06;;;21.04;40.77
55171;BME280;41060;47.510;8.680;2023-10-09T09:01:20;97854.91;;;21.04;41.30
55171;BME280;41060;47.510;8.680;2023-10-09T09:03:48;97846.81;;;21.21;40.90
55171;BME280;41060;47.510;8.680;2023-10-09T09:06:17;97858.75;;;21.26;40.70
55171;BME280;41060;47.510;8.680;2023-10-09T09:08:45;97863.59;;;21.31;41.00
55171;BME280;41060;47.510;8.680;2023-10-09T09:11:13;97851.81;;;21.32;40.96
55171;BME280;41060;47.510;8.680;2023-10-09T09:13:44;97852.81;;;21.39;41.00
55171;BME280;41060;47.510;8.680;2023-10-09T09:16:20;97844.72;;;21.39;40.79
55171;BME280;41060;47.510;8.680;2023-10-09T09:18:52;97850.81;;;21.33;40.43
55171;BME280;41060;47.510;8.680;2023-10-09T09:21:26;97840.00;;;21.49;40.53
55171;BME280;41060;47.510;8.680;2023-10-09T09:23:55;97833.34;;;21.68;40.08
55171;BME280;41060;47.510;8.680;2023-10-09T09:26:36;97840.25;;;21.78;40.02
55171;BME280;41060;47.510;8.680;2023-10-09T09:29:05;97836.97;;;21.91;39.83
55171;BME280;41060;47.510;8.680;2023-10-09T09:31:34;97825.94;;;22.09;39.53
55171;BME280;41060;47.510;8.680;2023-10-09T09:34:05;97808.47;;;21.97;39.48
55171;BME280;41060;47.510;8.680;2023-10-09T09:36:52;97830.50;;;22.08;39.01
55171;BME280;41060;47.510;8.680;2023-10-09T09:39:22;97829.88;;;22.29;38.84
55171;BME280;41060;47.510;8.680;2023-10-09T09:41:55;97828.41;;;22.49;38.41
55171;BME280;41060;47.510;8.680;2023-10-09T09:44:23;97816.41;;;22.75;38.08
55171;BME280;41060;47.510;8.680;2023-10-09T09:46:59;97823.00;;;22.72;37.83
55171;BME280;41060;47.510;8.680;2023-10-09T09:49:27;97814.50;;;22.98;37.74
55171;BME280;41060;47.510;8.680;2023-10-09T09:51:58;97816.88;;;23.16;37.73
55171;BME280;41060;47.510;8.680;2023-10-09T09:54:26;97811.13;;;23.33;36.77
55171;BME280;41060;47.510;8.680;2023-10-09T09:56:56;97815.34;;;23.51;36.56
55171;BME280;41060;47.510;8.680;2023-10-09T09:59:26;97804.97;;;23.39;36.60
55171;BME280;41060;47.510;8.680;2023-10-09T10:01:56;97813.75;;;23.42;37.06
55171;BME280;41060;47.510;8.680;2023-10-09T10:04:36;97817.53;;;23.18;36.91
55171;BME280;41060;47.510;8.680;2023-10-09T10:07:06;97813.34;;;23.15;37.20
55171;BME280;41060;47.510;8.680;2023-10-09T10:09:34;97807.00;;;23.23;36.58
55171;BME280;41060;47.510;8.680;2023-10-09T10:12:04;97807.22;;;23.36;36.43
55171;BME280;41060;47.510;8.680;2023-10-09T10:14:56;97818.75;;;23.30;36.77
55171;BME280;41060;47.510;8.680;2023-10-09T10:17:25;97816.25;;;23.43;36.84
55171;BME280;41060;47.510;8.680;2023-10-09T10:20:05;97818.38;;;23.62;36.30
55171;BME280;41060;47.510;8.680;2023-10-09T10:22:50;97812.81;;;23.64;36.52
55171;BME280;41060;47.510;8.680;2023-10-09T10:25:32;97818.59;;;23.75;36.39
55171;BME280;41060;47.510;8.680;2023-10-09T10:28:16;97811.03;;;23.86;36.49
55171;BME280;41060;47.510;8.680;2023-10-09T10:30:54;97789.41;;;23.71;36.28
55171;BME280;41060;47.510;8.680;2023-10-09T10:33:22;97816.38;;;23.79;36.35
55171;BME280;41060;47.510;8.680;2023-10-09T10:35:51;97814.41;;;23.58;36.34
55171;BME280;41060;47.510;8.680;2023-10-09T10:38:25;97824.00;;;23.75;36.60
55171;BME280;41060;47.510;8.680;2023-10-09T10:40:51;97811.13;;;23.92;36.29
55171;BME280;41060;47.510;8.680;2023-10-09T10:43:24;97806.94;;;24.11;36.21
55171;BME280;41060;47.510;8.680;2023-10-09T10:46:13;97803.00;;;24.28;35.80
55171;BME280;41060;47.510;8.680;2023-10-09T10:48:51;97808.44;;;24.49;35.94
55171;BME280;41060;47.510;8.680;2023-10-09T10:51:24;97788.41;;;24.44;36.35
55171;BME280;41060;47.510;8.680;2023-10-09T10:54:01;97799.09;;;24.52;36.24
55171;BME280;41060;47.510;8.680;2023-10-09T10:56:48;97787.97;;;24.62;36.13
55171;BME280;41060;47.510;8.680;2023-10-09T10:59:15;97791.81;;;24.52;35.94
55171;BME280;41060;47.510;8.680;2023-10-09T11:01:48;97782.84;;;24.73;36.26
55171;BME280;41060;47.510;8.680;2023-10-09T11:04:28;97778.97;;;24.82;35.99
55171;BME280;41060;47.510;8.680;2023-10-09T11:07:07;97755.25;;;24.63;35.39
55171;BME280;41060;47.510;8.680;2023-10-09T11:09:49;97778.00;;;24.47;36.06
55171;BME280;41060;47.510;8.680;2023-10-09T11:12:43;97773.84;;;24.45;35.68
55171;BME280;41060;47.510;8.680;2023-10-09T11:15:43;97784.50;;;24.32;35.94
55171;BME280;41060;47.510;8.680;2023-10-09T11:18:12;97783.94;;;24.58;35.72
55171;BME280;41060;47.510;8.680;2023-10-09T11:20:51;97781.22;;;24.79;35.53
55171;BME280;41060;47.510;8.680;2023-10-09T11:23:43;97781.13;;;24.93;35.75
55171;BME280;41060;47.510;8.680;2023-10-09T11:26:25;97780.63;;;25.05;35.61
55171;BME280;41060;47.510;8.680;2023-10-09T11:29:06;97778.47;;;25.21;35.60
55171;BME280;41060;47.510;8.680;2023-10-09T11:31:41;97780.97;;;25.29;35.65
55171;BME280;41060;47.510;8.680;2023-10-09T11:34:20;97782.28;;;25.34;34.75
55171;BME280;41060;47.510;8.680;2023-10-09T11:36:57;97787.28;;;25.37;34.86
55171;BME280;41060;47.510;8.680;2023-10-09T11:39:25;97778.69;;;24.99;34.20
55171;BME280;41060;47.510;8.680;2023-10-09T11:42:06;97778.31;;;24.80;34.41
55171;BME280;41060;47.510;8.680;2023-10-09T11:44:40;97771.16;;;25.01;34.67
55171;BME280;41060;47.510;8.680;2023-10-09T11:47:07;97779.38;;;25.07;34.05
55171;BME280;41060;47.510;8.680;2023-10-09T11:49:51;97773.56;;;25.10;34.03
55171;BME280;41060;47.510;8.680;2023-10-09T11:52:32;97767.31;;;25.10;34.16
55171;BME280;41060;47.510;8.680;2023-10-09T11:55:01;97763.47;;;25.25;34.91
55171;BME280;41060;47.510;8.680;2023-10-09T11:57:28;97752.69;;;25.39;34.71
55171;BME280;41060;47.510;8.680;2023-10-09T11:59:57;97749.63;;;25.48;34.34
55171;BME280;41060;47.510;8.680;2023-10-09T12:02:25;97751.31;;;25.56;34.66
55171;BME280;41060;47.510;8.680;2023-10-09T12:04:52;97738.16;;;25.53;34.50
55171;BME280;41060;47.510;8.680;2023-10-09T12:07:23;97745.06;;;25.55;34.15
55171;BME280;41060;47.510;8.680;2023-10-09T12:09:51;97737.41;;;25.31;33.52
55171;BME280;41060;47.510;8.680;2023-10-09T12:12:22;97738.69;;;25.28;34.73
55171;BME280;41060;47.510;8.680;2023-10-09T12:14:52;97739.59;;;25.42;34.08
55171;BME280;41060;47.510;8.680;2023-10-09T12:17:21;97738.94;;;25.40;34.14
55171;BME280;41060;47.510;8.680;2023-10-09T12:19:51;97736.53;;;25.24;34.27
55171;BME280;41060;47.510;8.680;2023-10-09T12:22:18;97733.28;;;25.35;34.44
55171;BME280;41060;47.510;8.680;2023-10-09T12:24:47;97719.78;;;25.48;34.44
55171;BME280;41060;47.510;8.680;2023-10-09T12:27:15;97722.47;;;25.42;34.60
55171;BME280;41060;47.510;8.680;2023-10-09T12:29:46;97724.91;;;25.30;34.24
55171;BME280;41060;47.510;8.680;2023-10-09T12:32:13;97707.38;;;25.26;34.40
55171;BME280;41060;47.510;8.680;2023-10-09T12:34:45;97719.31;;;25.38;34.47
55171;BME280;41060;47.510;8.680;2023-10-09T12:37:15;97717.09;;;25.48;34.63
55171;BME280;41060;47.510;8.680;2023-10-09T12:39:43;97718.34;;;25.52;35.06
55171;BME280;41060;47.510;8.680;2023-10-09T12:42:12;97713.16;;;25.57;35.92
55171;BME280;41060;47.510;8.680;2023-10-09T12:44:40;97710.66;;;25.62;35.31
55171;BME280;41060;47.510;8.680;2023-10-09T12:47:06;97709.16;;;25.53;36.01
55171;BME280;41060;47.510;8.680;2023-10-09T12:49:33;97706.88;;;25.50;35.24
55171;BME280;41060;47.510;8.680;2023-10-09T12:52:00;97712.31;;;25.57;35.21
55171;BME280;41060;47.510;8.680;2023-10-09T12:54:26;97710.03;;;25.60;35.58
55171;BME280;41060;47.510;8.680;2023-10-09T12:56:54;97707.59;;;25.65;35.64
55171;BME280;41060;47.510;8.680;2023-10-09T12:59:21;97708.41;;;25.66;35.47
55171;BME280;41060;47.510;8.680;2023-10-09T13:01:50;97690.00;;;25.55;35.96
55171;BME280;41060;47.510;8.680;2023-10-09T13:04:23;97706.75;;;25.65;35.76
55171;BME280;41060;47.510;8.680;2023-10-09T13:06:57;97704.88;;;25.65;35.88
55171;BME280;41060;47.510;8.680;2023-10-09T13:09:28;97706.53;;;25.66;36.02
55171;BME280;41060;47.510;8.680;2023-10-09T13:12:01;97704.59;;;25.60;35.71
55171;BME280;41060;47.510;8.680;2023-10-09T13:14:28;97691.69;;;25.62;35.67
55171;BME280;41060;47.510;8.680;2023-10-09T13:16:56;97692.53;;;25.63;35.82
55171;BME280;41060;47.510;8.680;2023-10-09T13:19:22;97688.34;;;25.60;36.13
55171;BME280;41060;47.510;8.680;2023-10-09T13:21:51;97687.94;;;25.63;36.17
55171;BME280;41060;47.510;8.680;2023-10-09T13:24:18;97682.72;;;25.62;37.29
55171;BME280;41060;47.510;8.680;2023-10-09T13:26:57;97683.34;;;25.64;37.12
55171;BME280;41060;47.510;8.680;2023-10-09T13:29:24;97676.66;;;25.60;37.14
55171;BME280;41060;47.510;8.680;2023-10-09T13:31:51;97675.22;;;25.64;36.99
55171;BME280;41060;47.510;8.680;2023-10-09T13:34:24;97676.66;;;25.60;36.88
55171;BME280;41060;47.510;8.680;2023-10-09T13:36:53;97672.50;;;25.57;37.24
55171;BME280;41060;47.510;8.680;2023-10-09T13:39:21;97668.31;;;25.55;37.06
55171;BME280;41060;47.510;8.680;2023-10-09T13:41:51;97661.81;;;25.49;36.75
55171;BME280;41060;47.510;8.680;2023-10-09T13:44:23;97664.94;;;25.46;36.71
55171;BME280;41060;47.510;8.680;2023-10-09T13:46:52;97658.28;;;25.49;37.22
55171;BME280;41060;47.510;8.680;2023-10-09T13:49:19;97655.97;;;25.52;37.18
55171;BME280;41060;47.510;8.680;2023-10-09T13:51:49;97649.09;;;25.50;37.29
55171;BME280;41060;47.510;8.680;2023-10-09T13:54:17;97649.72;;;25.52;37.67
55171;BME280;41060;47.510;8.680;2023-10-09T13:56:47;97651.59;;;25.51;37.52
55171;BME280;41060;47.510;8.680;2023-10-09T13:59:19;97646.59;;;25.48;38.03
55171;BME280;41060;47.510;8.680;2023-10-09T14:01:47;97645.31;;;25.44;37.80
55171;BME280;41060;47.510;8.680;2023-10-09T14:04:14;97643.22;;;25.40;37.99
55171;BME280;41060;47.510;8.680;2023-10-09T14:06:44;97631.97;;;25.36;37.83
55171;BME280;41060;47.510;8.680;2023-10-09T14:09:13;97633.22;;;25.40;37.80
55171;BME280;41060;47.510;8.680;2023-10-09T14:11:57;97636.78;;;25.47;37.37
55171;BME280;41060;47.510;8.680;2023-10-09T14:14:35;97630.72;;;25.52;37.22